sensor_id;sensor_type;location;lat;lon;timestamp;P1;durP1;ratioP1;P2;durP2;ratioP2
15635;SDS011;7917;50.818;6.972;2023-03-24T00:02:10;3.72;;;2.22;;
15635;SDS011;7917;50.818;6.972;2023-03-24T00:04:38;2.78;;;2.05;;
15635;SDS011;7917;50.818;6.972;2023-03-24T00:07:05;2.92;;;1.77;;
15635;SDS011;7917;50.818;6.972;2023-03-24T00:09:32;2.65;;;2.00;;
15635;SDS011;7917;50.818;6.972;2023-03-24T00:12:00;2.80;;;1.85;;
15635;SDS011;7917;50.818;6.972;2023-03-24T00:14:26;4.70;;;1.98;;
15635;SDS011;7917;50.818;6.972;2023-03-24T00:16:54;1.77;;;1.65;;
15635;SDS011;7917;50.818;6.972;2023-03-24T00:19:25;3.55;;;1.70;;
15635;SDS011;7917;50.818;6.972;2023-03-24T00:21:52;2.88;;;1.95;;
15635;SDS011;7917;50.818;6.972;2023-03-24T00:24:24;2.50;;;1.73;;
15635;SDS011;7917;50.818;6.972;2023-03-24T00:26:52;2.88;;;1.65;;
15635;SDS011;7917;50.818;6.972;2023-03-24T00:29:22;2.80;;;1.90;;
15635;SDS011;7917;50.818;6.972;2023-03-24T00:31:49;2.15;;;1.70;;
15635;SDS011;7917;50.818;6.972;2023-03-24T00:34:17;4.85;;;2.63;;
15635;SDS011;7917;50.818;6.972;2023-03-24T00:36:46;2.58;;;2.08;;
15635;SDS011;7917;50.818;6.972;2023-03-24T00:39:15;3.38;;;1.60;;
15635;SDS011;7917;50.818;6.972;2023-03-24T00:41:43;1.73;;;1.48;;
15635;SDS011;7917;50.818;6.972;2023-03-24T00:44:10;2.50;;;1.83;;
15635;SDS011;7917;50.818;6.972;2023-03-24T00:46:42;2.42;;;1.70;;
15635;SDS011;7917;50.818;6.972;2023-03-24T00:49:10;3.10;;;1.90;;
15635;SDS011;7917;50.818;6.972;2023-03-24T00:51:40;3.65;;;1.60;;
15635;SDS011;7917;50.818;6.972;2023-03-24T00:54:07;3.83;;;2.13;;
15635;SDS011;7917;50.818;6.972;2023-03-24T00:56:37;2.35;;;1.88;;
15635;SDS011;7917;50.818;6.972;2023-03-24T00:59:05;3.33;;;2.05;;
15635;SDS011;7917;50.818;6.972;2023-03-24T01:01:37;3.08;;;2.05;;
15635;SDS011;7917;50.818;6.972;2023-03-24T01:04:05;3.75;;;1.90;;
15635;SDS011;7917;50.818;6.972;2023-03-24T01:06:32;3.10;;;2.10;;
15635;SDS011;7917;50.818;6.972;2023-03-24T01:09:01;6.65;;;2.08;;
15635;SDS011;7917;50.818;6.972;2023-03-24T01:11:32;2.85;;;1.70;;
15635;SDS011;7917;50.818;6.972;2023-03-24T01:14:02;4.88;;;2.30;;
15635;SDS011;7917;50.818;6.972;2023-03-24T01:16:29;2.45;;;1.88;;
15635;SDS011;7917;50.818;6.972;2023-03-24T01:19:11;3.25;;;1.88;;
15635;SDS011;7917;50.818;6.972;2023-03-24T01:21:38;2.42;;;1.83;;
15635;SDS011;7917;50.818;6.972;2023-03-24T01:24:06;3.47;;;2.35;;
15635;SDS011;7917;50.818;6.972;2023-03-24T01:26:33;2.28;;;1.85;;
15635;SDS011;7917;50.818;6.972;2023-03-24T01:29:00;3.00;;;2.35;;
15635;SDS011;7917;50.818;6.972;2023-03-24T01:31:27;3.60;;;2.30;;
15635;SDS011;7917;50.818;6.972;2023-03-24T01:33:54;3.15;;;2.05;;
15635;SDS011;7917;50.818;6.972;2023-03-24T01:36:21;3.75;;;2.30;;
15635;SDS011;7917;50.818;6.972;2023-03-24T01:38:48;3.60;;;1.92;;
15635;SDS011;7917;50.818;6.972;2023-03-24T01:41:17;3.60;;;2.70;;
15635;SDS011;7917;50.818;6.972;2023-03-24T01:43:43;2.22;;;2.03;;
15635;SDS011;7917;50.818;6.972;2023-03-24T01:46:14;2.78;;;2.33;;
15635;SDS011;7917;50.818;6.972;2023-03-24T01:48:43;3.05;;;2.72;;
15635;SDS011;7917;50.818;6.972;2023-03-24T01:51:15;2.30;;;2.03;;
15635;SDS011;7917;50.818;6.972;2023-03-24T01:53:46;3.22;;;2.50;;
15635;SDS011;7917;50.818;6.972;2023-03-24T01:56:17;3.58;;;2.40;;
15635;SDS011;7917;50.818;6.972;2023-03-24T01:58:47;2.20;;;2.00;;
15635;SDS011;7917;50.818;6.972;2023-03-24T02:01:16;2.42;;;2.22;;
15635;SDS011;7917;50.818;6.972;2023-03-24T02:03:43;3.40;;;2.17;;
15635;SDS011;7917;50.818;6.972;2023-03-24T02:06:11;5.43;;;2.72;;
15635;SDS011;7917;50.818;6.972;2023-03-24T02:08:41;3.22;;;2.38;;
15635;SDS011;7917;50.818;6.972;2023-03-24T02:11:13;2.80;;;2.45;;
15635;SDS011;7917;50.818;6.972;2023-03-24T02:13:40;3.00;;;2.13;;
15635;SDS011;7917;50.818;6.972;2023-03-24T02:16:12;4.05;;;2.50;;
15635;SDS011;7917;50.818;6.972;2023-03-24T02:18:46;4.85;;;2.28;;
15635;SDS011;7917;50.818;6.972;2023-03-24T02:27:56;4.28;;;2.97;;
15635;SDS011;7917;50.818;6.972;2023-03-24T02:30:43;4.32;;;2.72;;
15635;SDS011;7917;50.818;6.972;2023-03-24T02:36:47;4.75;;;2.85;;
15635;SDS011;7917;50.818;6.972;2023-03-24T02:39:47;4.50;;;2.90;;
15635;SDS011;7917;50.818;6.972;2023-03-24T02:42:35;5.47;;;3.60;;
15635;SDS011;7917;50.818;6.972;2023-03-24T02:45:12;4.18;;;3.08;;
15635;SDS011;7917;50.818;6.972;2023-03-24T02:47:50;6.93;;;3.30;;
15635;SDS011;7917;50.818;6.972;2023-03-24T02:50:29;4.13;;;2.80;;
15635;SDS011;7917;50.818;6.972;2023-03-24T02:55:33;3.20;;;2.65;;
15635;SDS011;7917;50.818;6.972;2023-03-24T02:58:07;4.45;;;3.35;;
15635;SDS011;7917;50.818;6.972;2023-03-24T03:00:39;2.92;;;2.42;;
15635;SDS011;7917;50.818;6.972;2023-03-24T03:03:12;4.03;;;2.65;;
15635;SDS011;7917;50.818;6.972;2023-03-24T03:05:48;3.92;;;2.67;;
15635;SDS011;7917;50.818;6.972;2023-03-24T03:08:18;3.75;;;3.17;;
15635;SDS011;7917;50.818;6.972;2023-03-24T03:10:48;4.00;;;3.08;;
15635;SDS011;7917;50.818;6.972;2023-03-24T03:13:20;3.67;;;2.88;;
15635;SDS011;7917;50.818;6.972;2023-03-24T03:15:50;4.85;;;3.10;;
15635;SDS011;7917;50.818;6.972;2023-03-24T03:18:21;4.40;;;3.50;;
15635;SDS011;7917;50.818;6.972;2023-03-24T03:20:53;5.93;;;3.67;;
15635;SDS011;7917;50.818;6.972;2023-03-24T03:23:24;3.80;;;3.05;;
15635;SDS011;7917;50.818;6.972;2023-03-24T03:25:56;3.72;;;2.97;;
15635;SDS011;7917;50.818;6.972;2023-03-24T03:28:30;5.07;;;3.15;;
15635;SDS011;7917;50.818;6.972;2023-03-24T03:31:01;4.65;;;3.20;;
15635;SDS011;7917;50.818;6.972;2023-03-24T03:33:32;9.32;;;4.47;;
15635;SDS011;7917;50.818;6.972;2023-03-24T03:36:03;6.10;;;3.47;;
15635;SDS011;7917;50.818;6.972;2023-03-24T03:38:41;4.32;;;3.63;;
15635;SDS011;7917;50.818;6.972;2023-03-24T03:41:18;3.45;;;2.97;;
15635;SDS011;7917;50.818;6.972;2023-03-24T03:43:45;3.88;;;3.35;;
15635;SDS011;7917;50.818;6.972;2023-03-24T03:46:13;5.88;;;2.78;;
15635;SDS011;7917;50.818;6.972;2023-03-24T03:48:56;3.92;;;2.80;;
15635;SDS011;7917;50.818;6.972;2023-03-24T03:51:22;4.45;;;3.15;;
15635;SDS011;7917;50.818;6.972;2023-03-24T03:53:50;3.58;;;3.17;;
15635;SDS011;7917;50.818;6.972;2023-03-24T03:56:21;3.92;;;3.00;;
15635;SDS011;7917;50.818;6.972;2023-03-24T03:58:51;5.57;;;3.40;;
15635;SDS011;7917;50.818;6.972;2023-03-24T04:01:18;3.15;;;2.70;;
15635;SDS011;7917;50.818;6.972;2023-03-24T04:03:51;2.92;;;2.60;;
15635;SDS011;7917;50.818;6.972;2023-03-24T04:06:46;2.85;;;2.47;;
15635;SDS011;7917;50.818;6.972;2023-03-24T04:09:26;2.92;;;2.40;;
15635;SDS011;7917;50.818;6.972;2023-03-24T04:12:06;3.45;;;2.20;;
15635;SDS011;7917;50.818;6.972;2023-03-24T04:14:52;3.63;;;2.50;;
15635;SDS011;7917;50.818;6.972;2023-03-24T04:17:41;3.10;;;2.00;;
15635;SDS011;7917;50.818;6.972;2023-03-24T04:20:27;3.95;;;2.60;;
15635;SDS011;7917;50.818;6.972;2023-03-24T04:23:00;4.20;;;2.20;;
15635;SDS011;7917;50.818;6.972;2023-03-24T04:25:36;3.08;;;2.10;;
15635;SDS011;7917;50.818;6.972;2023-03-24T04:28:13;2.10;;;1.90;;
15635;SDS011;7917;50.818;6.972;2023-03-24T04:30:46;2.40;;;1.95;;
15635;SDS011;7917;50.818;6.972;2023-03-24T04:33:22;3.28;;;2.28;;
15635;SDS011;7917;50.818;6.972;2023-03-24T04:36:04;2.33;;;1.88;;
15635;SDS011;7917;50.818;6.972;2023-03-24T04:38:44;2.50;;;1.90;;
15635;SDS011;7917;50.818;6.972;2023-03-24T04:41:14;3.50;;;1.98;;
15635;SDS011;7917;50.818;6.972;2023-03-24T04:43:44;2.50;;;2.13;;
15635;SDS011;7917;50.818;6.972;2023-03-24T04:46:13;2.58;;;1.63;;
15635;SDS011;7917;50.818;6.972;2023-03-24T04:48:42;2.13;;;1.90;;
15635;SDS011;7917;50.818;6.972;2023-03-24T04:51:08;3.78;;;1.80;;
15635;SDS011;7917;50.818;6.972;2023-03-24T04:53:36;2.90;;;1.70;;
15635;SDS011;7917;50.818;6.972;2023-03-24T04:56:05;2.20;;;1.60;;
15635;SDS011;7917;50.818;6.972;2023-03-24T04:58:49;1.95;;;1.50;;
15635;SDS011;7917;50.818;6.972;2023-03-24T05:01:16;2.42;;;1.80;;
15635;SDS011;7917;50.818;6.972;2023-03-24T05:03:45;2.47;;;1.88;;
15635;SDS011;7917;50.818;6.972;2023-03-24T05:06:12;2.75;;;1.65;;
15635;SDS011;7917;50.818;6.972;2023-03-24T05:08:39;3.63;;;1.58;;
15635;SDS011;7917;50.818;6.972;2023-03-24T05:11:06;2.83;;;1.30;;
15635;SDS011;7917;50.818;6.972;2023-03-24T05:13:32;2.50;;;1.25;;
15635;SDS011;7917;50.818;6.972;2023-03-24T05:16:00;2.65;;;1.50;;
15635;SDS011;7917;50.818;6.972;2023-03-24T05:18:26;2.13;;;1.42;;
15635;SDS011;7917;50.818;6.972;2023-03-24T05:20:53;4.30;;;1.50;;
15635;SDS011;7917;50.818;6.972;2023-03-24T05:23:20;3.97;;;1.80;;
15635;SDS011;7917;50.818;6.972;2023-03-24T05:25:47;1.90;;;1.40;;
15635;SDS011;7917;50.818;6.972;2023-03-24T05:28:13;4.30;;;1.90;;
15635;SDS011;7917;50.818;6.972;2023-03-24T05:30:40;2.75;;;1.90;;
15635;SDS011;7917;50.818;6.972;2023-03-24T05:33:07;2.53;;;1.80;;
15635;SDS011;7917;50.818;6.972;2023-03-24T05:35:34;3.00;;;1.88;;
15635;SDS011;7917;50.818;6.972;2023-03-24T05:38:00;1.88;;;1.38;;
15635;SDS011;7917;50.818;6.972;2023-03-24T05:40:27;2.47;;;1.63;;
15635;SDS011;7917;50.818;6.972;2023-03-24T05:42:54;3.53;;;1.65;;
15635;SDS011;7917;50.818;6.972;2023-03-24T05:45:20;2.30;;;1.80;;
15635;SDS011;7917;50.818;6.972;2023-03-24T05:47:47;3.22;;;1.63;;
15635;SDS011;7917;50.818;6.972;2023-03-24T05:50:14;3.35;;;1.67;;
15635;SDS011;7917;50.818;6.972;2023-03-24T05:52:41;5.72;;;1.90;;
15635;SDS011;7917;50.818;6.972;2023-03-24T05:55:08;4.72;;;1.80;;
15635;SDS011;7917;50.818;6.972;2023-03-24T05:57:41;2.88;;;1.67;;
15635;SDS011;7917;50.818;6.972;2023-03-24T06:00:08;2.60;;;1.58;;
15635;SDS011;7917;50.818;6.972;2023-03-24T06:02:41;3.08;;;1.83;;
15635;SDS011;7917;50.818;6.972;2023-03-24T06:05:08;3.20;;;1.50;;
15635;SDS011;7917;50.818;6.972;2023-03-24T06:07:36;2.40;;;1.75;;
15635;SDS011;7917;50.818;6.972;2023-03-24T06:10:03;2.47;;;1.60;;
15635;SDS011;7917;50.818;6.972;2023-03-24T06:12:32;4.47;;;1.80;;
15635;SDS011;7917;50.818;6.972;2023-03-24T06:14:58;3.08;;;2.40;;
15635;SDS011;7917;50.818;6.972;2023-03-24T06:17:25;2.90;;;1.63;;
15635;SDS011;7917;50.818;6.972;2023-03-24T06:19:54;2.05;;;1.50;;
15635;SDS011;7917;50.818;6.972;2023-03-24T06:22:28;5.15;;;1.90;;
15635;SDS011;7917;50.818;6.972;2023-03-24T06:24:57;3.08;;;1.63;;
15635;SDS011;7917;50.818;6.972;2023-03-24T06:27:24;3.05;;;1.80;;
15635;SDS011;7917;50.818;6.972;2023-03-24T06:29:54;3.58;;;1.85;;
15635;SDS011;7917;50.818;6.972;2023-03-24T06:32:21;8.38;;;2.33;;
15635;SDS011;7917;50.818;6.972;2023-03-24T06:34:48;2.83;;;1.63;;
15635;SDS011;7917;50.818;6.972;2023-03-24T06:37:14;2.85;;;1.88;;
15635;SDS011;7917;50.818;6.972;2023-03-24T06:39:41;5.63;;;2.17;;
15635;SDS011;7917;50.818;6.972;2023-03-24T06:42:08;6.30;;;1.95;;
15635;SDS011;7917;50.818;6.972;2023-03-24T06:44:35;7.28;;;2.05;;
15635;SDS011;7917;50.818;6.972;2023-03-24T06:47:02;6.35;;;1.80;;
15635;SDS011;7917;50.818;6.972;2023-03-24T06:49:28;4.78;;;1.70;;
15635;SDS011;7917;50.818;6.972;2023-03-24T06:51:55;6.68;;;1.70;;
15635;SDS011;7917;50.818;6.972;2023-03-24T06:54:23;8.18;;;2.13;;
15635;SDS011;7917;50.818;6.972;2023-03-24T06:56:49;4.28;;;1.80;;
15635;SDS011;7917;50.818;6.972;2023-03-24T06:59:21;6.20;;;1.77;;
15635;SDS011;7917;50.818;6.972;2023-03-24T07:01:48;7.38;;;3.88;;
15635;SDS011;7917;50.818;6.972;2023-03-24T07:04:16;6.72;;;1.77;;
15635;SDS011;7917;50.818;6.972;2023-03-24T07:06:42;3.45;;;1.85;;
15635;SDS011;7917;50.818;6.972;2023-03-24T07:09:09;8.43;;;2.00;;
15635;SDS011;7917;50.818;6.972;2023-03-24T07:11:36;6.25;;;2.53;;
15635;SDS011;7917;50.818;6.972;2023-03-24T07:14:06;5.45;;;2.45;;
15635;SDS011;7917;50.818;6.972;2023-03-24T07:16:36;5.43;;;2.00;;
15635;SDS011;7917;50.818;6.972;2023-03-24T07:19:02;11.32;;;2.40;;
15635;SDS011;7917;50.818;6.972;2023-03-24T07:21:29;7.75;;;3.50;;
15635;SDS011;7917;50.818;6.972;2023-03-24T07:23:55;6.85;;;2.30;;
15635;SDS011;7917;50.818;6.972;2023-03-24T07:26:23;6.22;;;2.58;;
15635;SDS011;7917;50.818;6.972;2023-03-24T07:28:50;5.60;;;2.20;;
15635;SDS011;7917;50.818;6.972;2023-03-24T07:31:19;7.63;;;2.25;;
15635;SDS011;7917;50.818;6.972;2023-03-24T07:33:48;6.28;;;2.53;;
15635;SDS011;7917;50.818;6.972;2023-03-24T07:36:15;6.55;;;2.15;;
15635;SDS011;7917;50.818;6.972;2023-03-24T07:38:41;5.78;;;2.38;;
15635;SDS011;7917;50.818;6.972;2023-03-24T07:41:09;5.93;;;2.90;;
15635;SDS011;7917;50.818;6.972;2023-03-24T07:43:35;10.00;;;2.70;;
15635;SDS011;7917;50.818;6.972;2023-03-24T07:46:02;6.95;;;2.72;;
15635;SDS011;7917;50.818;6.972;2023-03-24T07:48:28;7.10;;;2.78;;
15635;SDS011;7917;50.818;6.972;2023-03-24T07:53:23;4.13;;;2.63;;
15635;SDS011;7917;50.818;6.972;2023-03-24T07:55:50;8.00;;;3.53;;
15635;SDS011;7917;50.818;6.972;2023-03-24T07:58:17;9.00;;;2.50;;
15635;SDS011;7917;50.818;6.972;2023-03-24T08:00:43;7.03;;;2.83;;
15635;SDS011;7917;50.818;6.972;2023-03-24T08:03:10;5.22;;;2.80;;
15635;SDS011;7917;50.818;6.972;2023-03-24T08:05:39;6.22;;;2.80;;
15635;SDS011;7917;50.818;6.972;2023-03-24T08:08:07;7.82;;;2.92;;
15635;SDS011;7917;50.818;6.972;2023-03-24T08:10:33;6.30;;;3.05;;
15635;SDS011;7917;50.818;6.972;2023-03-24T08:13:03;7.28;;;2.88;;
15635;SDS011;7917;50.818;6.972;2023-03-24T08:15:30;7.45;;;2.58;;
15635;SDS011;7917;50.818;6.972;2023-03-24T08:18:02;5.72;;;2.15;;
15635;SDS011;7917;50.818;6.972;2023-03-24T08:20:29;9.10;;;2.83;;
15635;SDS011;7917;50.818;6.972;2023-03-24T08:22:56;8.63;;;2.38;;
15635;SDS011;7917;50.818;6.972;2023-03-24T08:25:23;8.38;;;2.40;;
15635;SDS011;7917;50.818;6.972;2023-03-24T08:27:51;7.72;;;2.50;;
15635;SDS011;7917;50.818;6.972;2023-03-24T08:30:18;8.15;;;2.92;;
15635;SDS011;7917;50.818;6.972;2023-03-24T08:32:47;7.32;;;2.92;;
15635;SDS011;7917;50.818;6.972;2023-03-24T08:35:18;5.50;;;2.30;;
15635;SDS011;7917;50.818;6.972;2023-03-24T08:37:46;10.30;;;2.78;;
15635;SDS011;7917;50.818;6.972;2023-03-24T08:40:17;7.70;;;2.35;;
15635;SDS011;7917;50.818;6.972;2023-03-24T08:42:55;6.38;;;2.25;;
15635;SDS011;7917;50.818;6.972;2023-03-24T08:45:23;7.38;;;2.08;;
15635;SDS011;7917;50.818;6.972;2023-03-24T08:47:52;9.05;;;2.42;;
15635;SDS011;7917;50.818;6.972;2023-03-24T08:50:20;6.53;;;2.55;;
15635;SDS011;7917;50.818;6.972;2023-03-24T08:52:48;5.35;;;1.92;;
15635;SDS011;7917;50.818;6.972;2023-03-24T08:55:15;5.93;;;1.70;;
15635;SDS011;7917;50.818;6.972;2023-03-24T08:57:43;5.88;;;2.00;;
15635;SDS011;7917;50.818;6.972;2023-03-24T09:00:11;5.32;;;1.95;;
15635;SDS011;7917;50.818;6.972;2023-03-24T09:02:39;7.95;;;2.53;;
15635;SDS011;7917;50.818;6.972;2023-03-24T09:05:07;9.07;;;2.17;;
15635;SDS011;7917;50.818;6.972;2023-03-24T09:07:33;6.95;;;1.90;;
15635;SDS011;7917;50.818;6.972;2023-03-24T09:10:00;10.32;;;2.75;;
15635;SDS011;7917;50.818;6.972;2023-03-24T09:12:27;4.93;;;2.63;;
15635;SDS011;7917;50.818;6.972;2023-03-24T09:14:53;10.32;;;2.22;;
15635;SDS011;7917;50.818;6.972;2023-03-24T09:17:21;8.45;;;2.25;;
15635;SDS011;7917;50.818;6.972;2023-03-24T09:19:47;10.30;;;2.22;;
15635;SDS011;7917;50.818;6.972;2023-03-24T09:22:14;9.18;;;2.03;;
15635;SDS011;7917;50.818;6.972;2023-03-24T09:24:41;12.35;;;2.85;;
15635;SDS011;7917;50.818;6.972;2023-03-24T09:27:09;7.53;;;1.98;;
15635;SDS011;7917;50.818;6.972;2023-03-24T09:29:35;6.07;;;1.95;;
15635;SDS011;7917;50.818;6.972;2023-03-24T09:32:03;7.88;;;2.35;;
15635;SDS011;7917;50.818;6.972;2023-03-24T09:34:30;6.38;;;2.20;;
15635;SDS011;7917;50.818;6.972;2023-03-24T09:36:58;6.22;;;1.80;;
15635;SDS011;7917;50.818;6.972;2023-03-24T09:39:24;6.43;;;2.03;;
15635;SDS011;7917;50.818;6.972;2023-03-24T09:41:52;5.43;;;2.05;;
15635;SDS011;7917;50.818;6.972;2023-03-24T09:44:22;7.15;;;1.77;;
15635;SDS011;7917;50.818;6.972;2023-03-24T09:46:53;5.95;;;2.20;;
15635;SDS011;7917;50.818;6.972;2023-03-24T09:49:23;10.45;;;2.33;;
15635;SDS011;7917;50.818;6.972;2023-03-24T09:51:55;8.43;;;2.20;;
15635;SDS011;7917;50.818;6.972;2023-03-24T09:54:29;8.20;;;1.80;;
15635;SDS011;7917;50.818;6.972;2023-03-24T09:57:01;6.65;;;2.13;;
15635;SDS011;7917;50.818;6.972;2023-03-24T09:59:31;4.60;;;1.75;;
15635;SDS011;7917;50.818;6.972;2023-03-24T10:02:03;6.78;;;1.60;;
15635;SDS011;7917;50.818;6.972;2023-03-24T10:04:37;5.90;;;1.48;;
15635;SDS011;7917;50.818;6.972;2023-03-24T10:07:06;7.38;;;2.00;;
15635;SDS011;7917;50.818;6.972;2023-03-24T10:09:38;6.57;;;1.65;;
15635;SDS011;7917;50.818;6.972;2023-03-24T10:12:15;4.43;;;1.33;;
15635;SDS011;7917;50.818;6.972;2023-03-24T10:14:52;4.40;;;1.63;;
15635;SDS011;7917;50.818;6.972;2023-03-24T10:17:30;5.40;;;1.45;;
15635;SDS011;7917;50.818;6.972;2023-03-24T10:20:04;7.68;;;1.75;;
15635;SDS011;7917;50.818;6.972;2023-03-24T10:22:43;7.70;;;1.73;;
15635;SDS011;7917;50.818;6.972;2023-03-24T10:25:17;5.63;;;2.08;;
15635;SDS011;7917;50.818;6.972;2023-03-24T10:27:48;9.27;;;1.33;;
15635;SDS011;7917;50.818;6.972;2023-03-24T10:30:19;8.55;;;1.70;;
15635;SDS011;7917;50.818;6.972;2023-03-24T10:32:48;9.60;;;1.77;;
15635;SDS011;7917;50.818;6.972;2023-03-24T10:35:15;4.72;;;1.30;;
15635;SDS011;7917;50.818;6.972;2023-03-24T10:37:45;5.07;;;1.77;;
15635;SDS011;7917;50.818;6.972;2023-03-24T10:40:17;6.13;;;1.70;;
15635;SDS011;7917;50.818;6.972;2023-03-24T10:42:46;5.90;;;1.40;;
15635;SDS011;7917;50.818;6.972;2023-03-24T10:45:22;11.38;;;1.35;;
15635;SDS011;7917;50.818;6.972;2023-03-24T10:47:52;6.78;;;1.65;;
15635;SDS011;7917;50.818;6.972;2023-03-24T10:50:22;4.93;;;1.60;;
15635;SDS011;7917;50.818;6.972;2023-03-24T10:52:51;6.40;;;1.45;;
15635;SDS011;7917;50.818;6.972;2023-03-24T10:55:19;7.32;;;1.80;;
15635;SDS011;7917;50.818;6.972;2023-03-24T10:57:49;6.60;;;1.70;;
15635;SDS011;7917;50.818;6.972;2023-03-24T11:00:21;9.25;;;2.30;;
15635;SDS011;7917;50.818;6.972;2023-03-24T11:02:55;8.63;;;1.90;;
15635;SDS011;7917;50.818;6.972;2023-03-24T11:05:25;5.78;;;1.60;;
15635;SDS011;7917;50.818;6.972;2023-03-24T11:08:11;4.15;;;1.00;;
15635;SDS011;7917;50.818;6.972;2023-03-24T11:10:50;7.55;;;2.53;;
15635;SDS011;7917;50.818;6.972;2023-03-24T11:13:17;6.15;;;1.13;;
15635;SDS011;7917;50.818;6.972;2023-03-24T11:15:55;4.45;;;1.17;;
15635;SDS011;7917;50.818;6.972;2023-03-24T11:18:28;6.15;;;1.40;;
15635;SDS011;7917;50.818;6.972;2023-03-24T11:20:56;5.15;;;1.30;;
15635;SDS011;7917;50.818;6.972;2023-03-24T11:23:26;7.90;;;1.48;;
15635;SDS011;7917;50.818;6.972;2023-03-24T11:26:04;4.30;;;1.30;;
15635;SDS011;7917;50.818;6.972;2023-03-24T11:28:34;5.68;;;1.67;;
15635;SDS011;7917;50.818;6.972;2023-03-24T11:31:05;4.55;;;1.05;;
15635;SDS011;7917;50.818;6.972;2023-03-24T11:33:35;4.38;;;1.30;;
15635;SDS011;7917;50.818;6.972;2023-03-24T11:36:32;6.82;;;1.40;;
15635;SDS011;7917;50.818;6.972;2023-03-24T11:39:13;2.83;;;1.00;;
15635;SDS011;7917;50.818;6.972;2023-03-24T11:41:43;3.97;;;1.30;;
15635;SDS011;7917;50.818;6.972;2023-03-24T11:44:17;7.00;;;1.40;;
15635;SDS011;7917;50.818;6.972;2023-03-24T11:46:47;6.43;;;1.70;;
15635;SDS011;7917;50.818;6.972;2023-03-24T11:49:17;4.93;;;1.70;;
15635;SDS011;7917;50.818;6.972;2023-03-24T11:51:48;3.45;;;1.20;;
15635;SDS011;7917;50.818;6.972;2023-03-24T11:54:17;8.55;;;1.67;;
15635;SDS011;7917;50.818;6.972;2023-03-24T11:56:47;3.03;;;1.30;;
15635;SDS011;7917;50.818;6.972;2023-03-24T11:59:18;6.72;;;1.65;;
15635;SDS011;7917;50.818;6.972;2023-03-24T12:01:55;4.32;;;1.30;;
15635;SDS011;7917;50.818;6.972;2023-03-24T12:04:27;7.63;;;1.42;;
15635;SDS011;7917;50.818;6.972;2023-03-24T12:07:04;5.20;;;1.15;;
15635;SDS011;7917;50.818;6.972;2023-03-24T12:09:54;3.53;;;1.25;;
15635;SDS011;7917;50.818;6.972;2023-03-24T12:12:27;5.13;;;1.23;;
15635;SDS011;7917;50.818;6.972;2023-03-24T12:17:59;3.35;;;1.10;;
15635;SDS011;7917;50.818;6.972;2023-03-24T12:20:45;5.25;;;1.42;;
15635;SDS011;7917;50.818;6.972;2023-03-24T12:23:19;4.57;;;1.00;;
15635;SDS011;7917;50.818;6.972;2023-03-24T12:26:02;4.25;;;1.25;;
15635;SDS011;7917;50.818;6.972;2023-03-24T12:28:50;2.78;;;1.10;;
15635;SDS011;7917;50.818;6.972;2023-03-24T12:37:38;4.68;;;1.40;;
15635;SDS011;7917;50.818;6.972;2023-03-24T12:40:20;4.53;;;1.20;;
15635;SDS011;7917;50.818;6.972;2023-03-24T12:43:05;3.78;;;0.98;;
15635;SDS011;7917;50.818;6.972;2023-03-24T12:45:43;4.40;;;1.10;;
15635;SDS011;7917;50.818;6.972;2023-03-24T12:48:22;3.80;;;1.10;;
15635;SDS011;7917;50.818;6.972;2023-03-24T12:51:20;4.97;;;1.33;;
15635;SDS011;7917;50.818;6.972;2023-03-24T12:54:00;5.07;;;1.42;;
15635;SDS011;7917;50.818;6.972;2023-03-24T12:56:36;1.55;;;1.00;;
15635;SDS011;7917;50.818;6.972;2023-03-24T12:59:07;3.88;;;1.02;;
15635;SDS011;7917;50.818;6.972;2023-03-24T13:01:38;4.10;;;2.17;;
15635;SDS011;7917;50.818;6.972;2023-03-24T13:04:09;3.50;;;1.00;;
15635;SDS011;7917;50.818;6.972;2023-03-24T13:06:43;6.03;;;1.48;;
15635;SDS011;7917;50.818;6.972;2023-03-24T13:09:14;2.88;;;1.20;;
15635;SDS011;7917;50.818;6.972;2023-03-24T13:11:52;3.05;;;1.17;;
15635;SDS011;7917;50.818;6.972;2023-03-24T13:14:26;5.32;;;1.50;;
15635;SDS011;7917;50.818;6.972;2023-03-24T13:16:59;3.47;;;1.10;;
15635;SDS011;7917;50.818;6.972;2023-03-24T13:19:31;4.55;;;1.10;;
15635;SDS011;7917;50.818;6.972;2023-03-24T13:22:01;3.15;;;1.13;;
15635;SDS011;7917;50.818;6.972;2023-03-24T13:24:29;4.75;;;1.05;;
15635;SDS011;7917;50.818;6.972;2023-03-24T13:26:59;6.80;;;1.33;;
15635;SDS011;7917;50.818;6.972;2023-03-24T13:29:38;3.92;;;1.20;;
15635;SDS011;7917;50.818;6.972;2023-03-24T13:32:38;3.35;;;1.02;;
15635;SDS011;7917;50.818;6.972;2023-03-24T13:35:12;2.63;;;1.30;;
15635;SDS011;7917;50.818;6.972;2023-03-24T13:37:46;2.00;;;0.82;;
15635;SDS011;7917;50.818;6.972;2023-03-24T13:40:20;4.50;;;1.02;;
15635;SDS011;7917;50.818;6.972;2023-03-24T13:42:51;5.22;;;1.33;;
15635;SDS011;7917;50.818;6.972;2023-03-24T13:45:25;2.28;;;1.20;;
15635;SDS011;7917;50.818;6.972;2023-03-24T13:48:05;2.60;;;0.70;;
15635;SDS011;7917;50.818;6.972;2023-03-24T13:50:51;4.18;;;0.85;;
15635;SDS011;7917;50.818;6.972;2023-03-24T13:53:34;3.85;;;1.00;;
15635;SDS011;7917;50.818;6.972;2023-03-24T13:56:03;3.90;;;1.10;;
15635;SDS011;7917;50.818;6.972;2023-03-24T13:59:05;5.28;;;1.45;;
15635;SDS011;7917;50.818;6.972;2023-03-24T14:04:38;5.50;;;1.13;;
15635;SDS011;7917;50.818;6.972;2023-03-24T14:09:56;3.92;;;0.98;;
15635;SDS011;7917;50.818;6.972;2023-03-24T14:12:24;3.97;;;1.10;;
15635;SDS011;7917;50.818;6.972;2023-03-24T14:17:44;1.58;;;0.82;;
15635;SDS011;7917;50.818;6.972;2023-03-24T14:20:27;3.88;;;1.80;;
15635;SDS011;7917;50.818;6.972;2023-03-24T14:22:58;5.10;;;1.30;;
15635;SDS011;7917;50.818;6.972;2023-03-24T14:25:27;5.85;;;1.40;;
15635;SDS011;7917;50.818;6.972;2023-03-24T14:28:05;3.95;;;1.00;;
15635;SDS011;7917;50.818;6.972;2023-03-24T14:30:53;1.77;;;0.75;;
15635;SDS011;7917;50.818;6.972;2023-03-24T14:33:34;2.63;;;0.85;;
15635;SDS011;7917;50.818;6.972;2023-03-24T14:36:09;4.65;;;1.27;;
15635;SDS011;7917;50.818;6.972;2023-03-24T14:38:39;4.20;;;1.17;;
15635;SDS011;7917;50.818;6.972;2023-03-24T14:41:10;2.45;;;1.17;;
15635;SDS011;7917;50.818;6.972;2023-03-24T14:43:53;2.17;;;1.00;;
15635;SDS011;7917;50.818;6.972;2023-03-24T14:46:34;5.45;;;1.23;;
15635;SDS011;7917;50.818;6.972;2023-03-24T14:49:14;4.75;;;1.23;;
15635;SDS011;7917;50.818;6.972;2023-03-24T14:51:48;6.45;;;1.38;;
15635;SDS011;7917;50.818;6.972;2023-03-24T14:54:22;4.35;;;1.15;;
15635;SDS011;7917;50.818;6.972;2023-03-24T14:56:56;6.68;;;1.83;;
15635;SDS011;7917;50.818;6.972;2023-03-24T14:59:29;7.18;;;1.48;;
15635;SDS011;7917;50.818;6.972;2023-03-24T15:02:17;6.35;;;1.63;;
15635;SDS011;7917;50.818;6.972;2023-03-24T15:05:13;4.68;;;1.70;;
15635;SDS011;7917;50.818;6.972;2023-03-24T15:07:56;3.75;;;1.00;;
15635;SDS011;7917;50.818;6.972;2023-03-24T15:10:25;3.13;;;1.05;;
15635;SDS011;7917;50.818;6.972;2023-03-24T15:12:56;3.30;;;1.00;;
15635;SDS011;7917;50.818;6.972;2023-03-24T15:15:23;3.42;;;1.00;;
15635;SDS011;7917;50.818;6.972;2023-03-24T15:17:50;3.22;;;0.70;;
15635;SDS011;7917;50.818;6.972;2023-03-24T15:20:21;3.58;;;0.80;;
15635;SDS011;7917;50.818;6.972;2023-03-24T15:22:50;3.83;;;0.95;;
15635;SDS011;7917;50.818;6.972;2023-03-24T15:25:24;4.88;;;1.00;;
15635;SDS011;7917;50.818;6.972;2023-03-24T15:27:51;2.20;;;0.70;;
15635;SDS011;7917;50.818;6.972;2023-03-24T15:30:19;0.93;;;0.60;;
15635;SDS011;7917;50.818;6.972;2023-03-24T15:32:46;6.78;;;1.27;;
15635;SDS011;7917;50.818;6.972;2023-03-24T15:35:21;3.85;;;0.95;;
15635;SDS011;7917;50.818;6.972;2023-03-24T15:37:52;3.28;;;1.10;;
15635;SDS011;7917;50.818;6.972;2023-03-24T15:40:30;3.55;;;1.23;;
15635;SDS011;7917;50.818;6.972;2023-03-24T15:42:59;2.95;;;0.98;;
15635;SDS011;7917;50.818;6.972;2023-03-24T15:45:29;2.83;;;0.93;;
15635;SDS011;7917;50.818;6.972;2023-03-24T15:47:57;4.32;;;1.00;;
15635;SDS011;7917;50.818;6.972;2023-03-24T15:50:32;2.65;;;0.90;;
15635;SDS011;7917;50.818;6.972;2023-03-24T15:53:03;3.22;;;1.40;;
15635;SDS011;7917;50.818;6.972;2023-03-24T15:55:32;4.25;;;1.15;;
15635;SDS011;7917;50.818;6.972;2023-03-24T15:58:01;2.85;;;0.98;;
15635;SDS011;7917;50.818;6.972;2023-03-24T16:00:44;4.03;;;1.00;;